createdAt,value
2018-02-18T00:02:14.028Z,20.47
2018-02-18T00:04:41.471Z,19.00
2018-02-18T00:07:08.908Z,22.90
2018-02-18T00:09:36.332Z,23.27
2018-02-18T00:12:04.554Z,22.90
2018-02-18T00:14:32.884Z,22.73
2018-02-18T00:17:01.083Z,17.13
2018-02-18T00:19:28.535Z,26.63
2018-02-18T00:21:55.963Z,18.60
2018-02-18T00:24:24.163Z,20.90
2018-02-18T00:26:51.609Z,25.63
2018-02-18T00:29:19.822Z,24.77
2018-02-18T00:31:47.247Z,20.27
2018-02-18T00:34:14.680Z,28.07
2018-02-18T00:36:42.116Z,26.83
2018-02-18T00:39:09.543Z,16.87
2018-02-18T00:41:36.980Z,21.47
2018-02-18T00:44:04.412Z,17.30
2018-02-18T00:46:32.611Z,17.23
2018-02-18T00:49:00.043Z,22.37
2018-02-18T00:51:28.261Z,19.17
2018-02-18T00:53:55.684Z,18.57
2018-02-18T00:56:23.904Z,23.27
2018-02-18T00:58:51.362Z,21.50
2018-02-18T01:01:18.793Z,19.17
2018-02-18T01:03:46.283Z,26.47
2018-02-18T01:06:13.835Z,19.70
2018-02-18T01:08:41.274Z,19.53
2018-02-18T01:11:08.747Z,24.30
2018-02-18T01:13:36.200Z,24.13
2018-02-18T01:16:03.632Z,22.93
2018-02-18T01:18:31.123Z,27.03
2018-02-18T01:20:58.574Z,22.53
2018-02-18T01:23:26.000Z,18.90
2018-02-18T01:25:53.491Z,27.13
2018-02-18T01:28:20.949Z,24.87
2018-02-18T01:30:48.388Z,24.67
2018-02-18T01:33:15.860Z,23.60
2018-02-18T01:35:43.292Z,25.03
2018-02-18T01:38:11.394Z,22.17
2018-02-18T01:40:38.820Z,26.43
2018-02-18T01:43:06.309Z,26.67
2018-02-18T01:45:33.738Z,23.30
2018-02-18T01:48:01.180Z,24.73
2018-02-18T01:50:36.608Z,28.00
2018-02-18T01:53:04.808Z,23.93
2018-02-18T01:55:32.288Z,28.40
2018-02-18T01:57:59.734Z,24.20
2018-02-18T02:00:27.172Z,24.03
2018-02-18T02:02:54.668Z,28.17
2018-02-18T02:05:22.100Z,29.40
2018-02-18T02:07:49.577Z,28.27
2018-02-18T02:10:17.015Z,29.80
2018-02-18T02:12:44.456Z,29.03
2018-02-18T02:15:11.892Z,29.20
2018-02-18T02:17:40.126Z,31.50
2018-02-18T02:20:07.564Z,27.90
2018-02-18T02:22:35.709Z,30.20
2018-02-18T02:25:03.155Z,22.73
2018-02-18T02:27:31.379Z,26.57
2018-02-18T02:29:58.846Z,27.87
2018-02-18T02:32:26.287Z,37.83
2018-02-18T02:34:53.732Z,34.60
2018-02-18T02:37:21.174Z,31.50
2018-02-18T02:39:48.665Z,35.03
2018-02-18T02:42:16.127Z,31.97
2018-02-18T02:44:43.595Z,38.03
2018-02-18T02:47:11.152Z,38.67
2018-02-18T02:49:38.584Z,30.03
2018-02-18T02:52:06.058Z,32.50
2018-02-18T02:54:33.519Z,28.57
2018-02-18T02:57:00.956Z,35.23
2018-02-18T02:59:28.424Z,32.47
2018-02-18T03:01:55.868Z,36.10
2018-02-18T03:04:23.437Z,43.53
2018-02-18T03:06:50.905Z,27.70
2018-02-18T03:09:18.463Z,33.33
2018-02-18T03:11:45.895Z,34.40
2018-02-18T03:14:13.367Z,39.00
2018-02-18T03:16:40.801Z,33.07
2018-02-18T03:19:08.248Z,34.93
2018-02-18T03:21:36.268Z,30.33
2018-02-18T03:24:03.816Z,28.27
2018-02-18T03:26:31.250Z,30.60
2018-02-18T03:28:58.687Z,33.27
2018-02-18T03:31:26.184Z,30.83
2018-02-18T03:33:53.624Z,30.63
2018-02-18T03:36:21.084Z,34.13
2018-02-18T03:38:48.525Z,30.57
2018-02-18T03:41:16.012Z,36.33
2018-02-18T03:43:43.568Z,34.87
2018-02-18T03:46:11.128Z,35.43
2018-02-18T03:48:38.584Z,32.10
2018-02-18T03:51:06.048Z,36.43
2018-02-18T03:53:33.615Z,40.50
2018-02-18T03:56:01.054Z,34.07
2018-02-18T03:58:28.516Z,30.53
2018-02-18T04:00:56.667Z,31.83
2018-02-18T04:03:24.114Z,37.03
2018-02-18T04:05:51.652Z,39.07
2018-02-18T04:08:19.172Z,27.60
2018-02-18T04:10:46.723Z,33.63
2018-02-18T04:13:14.180Z,37.37
2018-02-18T04:15:41.732Z,33.57
2018-02-18T04:18:09.188Z,32.60
2018-02-18T04:20:36.626Z,36.17
2018-02-18T04:23:04.111Z,32.07
2018-02-18T04:25:31.564Z,30.30
2018-02-18T04:27:59.019Z,33.70
2018-02-18T04:30:26.464Z,35.63
2018-02-18T04:32:53.908Z,31.93
2018-02-18T04:35:21.347Z,31.77
2018-02-18T04:37:48.795Z,32.20
2018-02-18T04:40:17.012Z,32.10
2018-02-18T04:42:44.451Z,32.83
2018-02-18T04:45:11.888Z,37.13
2018-02-18T04:47:39.354Z,32.90
2018-02-18T04:50:06.815Z,33.13
2018-02-18T04:52:35.032Z,37.17
2018-02-18T04:55:02.580Z,31.60
2018-02-18T04:57:30.029Z,34.30
2018-02-18T04:59:57.502Z,30.50
2018-02-18T05:02:24.952Z,36.60
2018-02-18T05:04:52.399Z,32.13
2018-02-18T05:07:20.690Z,29.57
2018-02-18T05:09:48.127Z,36.90
2018-02-18T05:12:15.560Z,33.77
2018-02-18T05:14:43.012Z,31.80
2018-02-18T05:17:10.619Z,34.90
2018-02-18T05:19:38.067Z,38.47
2018-02-18T05:22:05.537Z,29.50
2018-02-18T05:24:32.992Z,37.37
2018-02-18T05:27:00.496Z,34.60
2018-02-18T05:29:27.932Z,28.90
2018-02-18T05:31:55.464Z,38.57
2018-02-18T05:34:22.994Z,31.87
2018-02-18T05:36:50.420Z,28.70
2018-02-18T05:39:18.654Z,35.97
2018-02-18T05:41:46.108Z,28.63
2018-02-18T05:44:13.567Z,35.60
2018-02-18T05:46:41.115Z,30.83
2018-02-18T05:49:08.584Z,29.73
2018-02-18T05:51:36.041Z,38.97
2018-02-18T05:54:03.476Z,28.00
2018-02-18T05:56:30.911Z,39.77
2018-02-18T05:58:58.349Z,29.80
2018-02-18T06:01:26.583Z,32.77
2018-02-18T06:03:54.037Z,32.20
2018-02-18T06:06:21.500Z,30.33
2018-02-18T06:08:48.928Z,36.27
2018-02-18T06:11:16.371Z,32.33
2018-02-18T06:13:43.804Z,35.23
2018-02-18T06:16:12.136Z,31.93
2018-02-18T06:18:39.570Z,34.70
2018-02-18T06:21:07.001Z,34.73
2018-02-18T06:23:35.220Z,30.30
2018-02-18T06:26:02.657Z,30.80
2018-02-18T06:28:30.100Z,34.77
2018-02-18T06:30:57.592Z,30.43
2018-02-18T06:33:25.027Z,37.73
2018-02-18T06:35:52.508Z,32.83
2018-02-18T06:38:20.072Z,39.10
2018-02-18T06:40:47.515Z,32.43
2018-02-18T06:43:14.953Z,35.30
2018-02-18T06:45:42.435Z,36.40
2018-02-18T06:48:09.914Z,31.50
2018-02-18T06:50:37.456Z,29.90
2018-02-18T06:53:04.927Z,34.67
2018-02-18T06:55:32.482Z,28.97
2018-02-18T06:58:00.028Z,32.37
2018-02-18T07:00:27.466Z,32.87
2018-02-18T07:02:54.954Z,33.00
2018-02-18T07:05:22.416Z,31.47
2018-02-18T07:07:49.856Z,35.13
2018-02-18T07:10:17.764Z,28.33
2018-02-18T07:12:45.291Z,34.40
2018-02-18T07:15:12.733Z,34.17
2018-02-18T07:17:40.267Z,33.43
2018-02-18T07:20:07.768Z,34.77
2018-02-18T07:22:35.222Z,36.90
2018-02-18T07:25:02.668Z,29.60
2018-02-18T07:27:30.103Z,33.33
2018-02-18T07:29:57.589Z,32.13
2018-02-18T07:32:25.020Z,33.17
2018-02-18T07:34:52.459Z,35.93
2018-02-18T07:37:20.605Z,34.33
2018-02-18T07:39:48.029Z,32.17
2018-02-18T07:42:15.472Z,34.97
2018-02-18T07:44:42.940Z,26.83
2018-02-18T07:47:10.404Z,30.27
2018-02-18T07:49:37.858Z,33.87
2018-02-18T07:52:05.301Z,37.90
2018-02-18T07:54:32.750Z,27.90
2018-02-18T07:57:00.193Z,33.47
2018-02-18T07:59:27.623Z,31.73
2018-02-18T08:01:55.142Z,29.70
2018-02-18T08:04:22.599Z,34.00
2018-02-18T08:06:50.056Z,35.67
2018-02-18T08:09:17.513Z,28.80
2018-02-18T08:11:44.953Z,29.03
2018-02-18T08:14:12.388Z,35.27
2018-02-18T08:16:39.824Z,30.33
2018-02-18T08:19:08.057Z,40.53
2018-02-18T08:21:35.514Z,37.73
2018-02-18T08:24:02.972Z,32.23
2018-02-18T08:26:30.527Z,39.77
2018-02-18T08:28:57.984Z,40.50
2018-02-18T08:31:25.444Z,35.20
2018-02-18T08:33:53.705Z,45.13
2018-02-18T08:36:21.136Z,52.53
2018-02-18T08:38:48.595Z,34.80
2018-02-18T08:41:16.058Z,43.90
2018-02-18T08:43:43.504Z,45.50
2018-02-18T08:46:10.960Z,36.10
2018-02-18T08:48:38.468Z,32.70
2018-02-18T08:51:06.021Z,41.50
2018-02-18T08:53:33.476Z,47.20
2018-02-18T08:56:00.920Z,35.83
2018-02-18T08:58:28.392Z,40.73
2018-02-18T09:00:55.863Z,42.33
2018-02-18T09:03:23.520Z,37.73
2018-02-18T09:05:50.967Z,33.30
2018-02-18T09:08:18.411Z,46.23
2018-02-18T09:10:45.887Z,38.83
2018-02-18T09:13:13.440Z,49.50
2018-02-18T09:15:40.897Z,41.40
2018-02-18T09:18:08.345Z,47.27
2018-02-18T09:20:35.777Z,40.07
2018-02-18T09:23:03.467Z,42.70
2018-02-18T09:25:30.912Z,38.87
2018-02-18T09:27:58.612Z,43.17
2018-02-18T09:30:26.060Z,39.87
2018-02-18T09:32:53.519Z,41.57
2018-02-18T09:35:20.977Z,44.87
2018-02-18T09:37:48.516Z,36.30
2018-02-18T09:40:15.980Z,34.07
2018-02-18T09:42:43.430Z,37.53
2018-02-18T09:45:10.870Z,39.20
2018-02-18T09:47:38.304Z,44.67
2018-02-18T09:50:05.796Z,39.27
2018-02-18T09:52:33.255Z,35.43
2018-02-18T09:55:00.702Z,35.40
2018-02-18T09:57:28.177Z,33.70
2018-02-18T09:59:55.628Z,41.10
2018-02-18T10:02:23.088Z,39.23
2018-02-18T10:04:50.540Z,39.83
2018-02-18T10:07:17.973Z,43.97
2018-02-18T10:09:45.463Z,37.73
2018-02-18T10:12:12.921Z,40.20
2018-02-18T10:14:40.356Z,37.70
2018-02-18T10:17:07.798Z,33.03
2018-02-18T10:19:35.254Z,30.40
2018-02-18T10:22:02.678Z,33.43
2018-02-18T10:24:30.889Z,34.70
2018-02-18T10:26:58.372Z,31.83
2018-02-18T10:29:25.824Z,28.50
2018-02-18T10:31:53.297Z,28.55
2018-02-18T10:34:20.704Z,32.07
2018-02-18T10:36:48.148Z,28.90
2018-02-18T10:39:16.340Z,28.03
2018-02-18T10:41:43.780Z,33.73
2018-02-18T10:44:11.988Z,40.73
2018-02-18T10:46:39.424Z,32.63
2018-02-18T10:49:06.868Z,31.10
2018-02-18T10:51:35.067Z,28.80
2018-02-18T10:54:02.508Z,33.17
2018-02-18T10:56:29.944Z,29.90
2018-02-18T10:58:58.144Z,29.73
2018-02-18T11:01:25.580Z,33.30
2018-02-18T11:03:53.788Z,28.37
2018-02-18T11:06:21.254Z,34.57
2018-02-18T11:08:48.684Z,38.73
2018-02-18T11:11:16.126Z,30.30
2018-02-18T11:13:44.322Z,31.10
2018-02-18T11:16:11.760Z,34.23
2018-02-18T11:18:39.971Z,33.50
2018-02-18T11:21:07.415Z,26.80
2018-02-18T11:23:34.860Z,37.40
2018-02-18T11:26:02.304Z,33.43
2018-02-18T11:28:30.504Z,34.57
2018-02-18T11:30:57.957Z,33.88
2018-02-18T11:33:25.391Z,41.03
2018-02-18T11:35:53.608Z,38.87
2018-02-18T11:38:21.048Z,38.60
2018-02-18T11:40:48.473Z,35.40
2018-02-18T11:43:16.682Z,34.40
2018-02-18T11:45:44.116Z,39.37
2018-02-18T11:48:11.547Z,42.00
2018-02-18T11:50:39.752Z,27.83
2018-02-18T11:53:07.194Z,31.10
2018-02-18T11:55:35.397Z,37.20
2018-02-18T11:58:02.840Z,36.43
2018-02-18T12:00:30.271Z,36.53
2018-02-18T12:02:58.498Z,34.43
2018-02-18T12:05:25.940Z,38.77
2018-02-18T12:07:53.371Z,33.73
2018-02-18T12:10:21.584Z,35.13
2018-02-18T12:12:49.025Z,32.13
2018-02-18T12:15:16.481Z,33.00
2018-02-18T12:17:43.914Z,34.77
2018-02-18T12:20:12.113Z,31.27
2018-02-18T12:22:39.557Z,34.87
2018-02-18T12:25:06.996Z,39.35
2018-02-18T12:27:35.198Z,37.58
2018-02-18T12:30:02.627Z,33.13
2018-02-18T12:32:30.845Z,31.23
2018-02-18T12:34:58.290Z,32.70
2018-02-18T12:37:25.724Z,33.50
2018-02-18T12:39:53.912Z,24.47
2018-02-18T12:42:21.369Z,28.90
2018-02-18T12:44:48.801Z,49.60
2018-02-18T12:47:17.036Z,31.40
2018-02-18T12:49:44.432Z,30.43
2018-02-18T12:52:12.669Z,22.70
2018-02-18T12:54:40.156Z,32.70
2018-02-18T12:57:07.540Z,25.50
2018-02-18T12:59:34.972Z,27.70
2018-02-18T13:02:03.172Z,37.83
2018-02-18T13:04:30.607Z,34.47
2018-02-18T13:06:58.811Z,23.00
2018-02-18T13:09:26.267Z,27.47
2018-02-18T13:11:53.689Z,26.27
2018-02-18T13:14:21.897Z,23.80
2018-02-18T13:16:49.349Z,30.27
2018-02-18T13:19:16.776Z,21.73
2018-02-18T13:21:44.988Z,26.23
2018-02-18T13:24:12.423Z,30.17
2018-02-18T13:26:39.864Z,25.27
2018-02-18T13:29:08.064Z,25.90
2018-02-18T13:31:35.504Z,23.83
2018-02-18T13:34:03.708Z,36.17
2018-02-18T13:36:31.162Z,37.30
2018-02-18T13:38:58.597Z,44.57
2018-02-18T13:41:26.033Z,25.70
2018-02-18T13:43:54.246Z,33.43
2018-02-18T13:46:21.689Z,28.03
2018-02-18T13:48:49.131Z,29.10
2018-02-18T13:51:17.342Z,45.87
2018-02-18T13:53:44.767Z,44.37
2018-02-18T13:56:12.211Z,42.28
2018-02-18T13:58:40.705Z,32.50
2018-02-18T14:01:08.906Z,27.70
2018-02-18T14:03:36.336Z,33.20
2018-02-18T14:06:03.772Z,27.00
2018-02-18T14:08:31.212Z,30.63
2018-02-18T14:10:58.651Z,32.13
2018-02-18T14:13:26.083Z,30.27
2018-02-18T14:15:53.528Z,35.40
2018-02-18T14:18:20.964Z,33.00
2018-02-18T14:20:49.160Z,46.07
2018-02-18T14:23:16.595Z,36.17
2018-02-18T14:25:44.792Z,33.47
2018-02-18T14:28:12.248Z,32.25
2018-02-18T14:30:39.676Z,36.45
2018-02-18T14:33:07.875Z,30.30
2018-02-18T14:35:35.328Z,33.85
2018-02-18T14:38:03.527Z,36.03
2018-02-18T14:40:30.972Z,26.50
2018-02-18T14:43:10.201Z,26.50
2018-02-18T14:45:49.344Z,34.33
2018-02-18T14:48:28.585Z,24.83
2018-02-18T14:51:07.808Z,28.77
2018-02-18T14:53:47.129Z,25.97
2018-02-18T14:56:26.376Z,30.10
2018-02-18T14:58:53.811Z,23.10
2018-02-18T15:01:21.263Z,23.60
2018-02-18T15:03:48.696Z,32.23
2018-02-18T15:06:16.132Z,25.90
2018-02-18T15:08:43.576Z,29.87
2018-02-18T15:11:11.012Z,31.03
2018-02-18T15:13:38.468Z,32.67
2018-02-18T15:16:05.900Z,36.27
2018-02-18T15:18:34.115Z,33.17
2018-02-18T15:21:01.558Z,44.10
2018-02-18T15:23:29.016Z,27.37
2018-02-18T15:25:56.439Z,29.13
2018-02-18T15:28:24.647Z,21.00
2018-02-18T15:30:52.084Z,21.90
2018-02-18T15:33:19.516Z,26.17
2018-02-18T15:35:47.748Z,26.63
2018-02-18T15:38:15.184Z,22.27
2018-02-18T15:40:42.619Z,28.27
2018-02-18T15:43:10.830Z,20.20
2018-02-18T15:45:38.277Z,22.97
2018-02-18T15:48:05.733Z,19.20
2018-02-18T15:50:33.163Z,23.90
2018-02-18T15:53:00.612Z,26.73
2018-02-18T15:55:28.824Z,23.07
2018-02-18T15:57:56.256Z,31.37
2018-02-18T16:00:24.454Z,25.17
2018-02-18T16:02:51.884Z,24.37
2018-02-18T16:05:19.330Z,17.63
2018-02-18T16:07:47.535Z,26.27
2018-02-18T16:10:14.988Z,20.33
2018-02-18T16:12:42.423Z,26.23
2018-02-18T16:15:10.616Z,24.90
2018-02-18T16:17:38.077Z,24.23
2018-02-18T16:20:05.516Z,26.07
2018-02-18T16:22:33.712Z,26.07
2018-02-18T16:25:01.156Z,29.93
2018-02-18T16:27:28.584Z,22.43
2018-02-18T16:29:56.794Z,27.00
2018-02-18T16:32:24.224Z,21.83
2018-02-18T16:34:52.419Z,21.60
2018-02-18T16:37:19.855Z,30.17
2018-02-18T16:39:48.084Z,46.83
2018-02-18T16:42:15.515Z,59.27
2018-02-18T16:44:42.947Z,35.53
2018-02-18T16:47:11.147Z,30.43
2018-02-18T16:49:38.583Z,25.20
2018-02-18T16:52:06.795Z,20.90
2018-02-18T16:54:34.233Z,27.40
2018-02-18T16:57:01.680Z,20.30
2018-02-18T16:59:29.127Z,20.23
2018-02-18T17:01:56.564Z,52.13
2018-02-18T17:04:24.779Z,47.33
2018-02-18T17:06:55.757Z,27.63
2018-02-18T17:09:23.188Z,18.13
2018-02-18T17:11:50.628Z,18.80
2018-02-18T17:14:18.060Z,17.80
2018-02-18T17:16:46.278Z,26.53
2018-02-18T17:19:13.722Z,23.40
2018-02-18T17:21:41.164Z,20.50
2018-02-18T17:24:08.592Z,16.80
2018-02-18T17:26:36.788Z,21.37
2018-02-18T17:29:04.225Z,18.03
2018-02-18T17:31:32.448Z,22.37
2018-02-18T17:33:59.880Z,18.70
2018-02-18T17:36:27.315Z,25.33
2018-02-18T17:38:55.517Z,16.43
2018-02-18T17:41:22.952Z,13.20
2018-02-18T17:43:51.188Z,15.50
2018-02-18T17:46:18.625Z,20.97
2018-02-18T17:48:46.048Z,16.23
2018-02-18T17:51:13.483Z,14.50
2018-02-18T17:53:41.680Z,16.33
2018-02-18T17:56:09.120Z,14.57
2018-02-18T17:58:37.318Z,38.97
2018-02-18T18:01:04.769Z,22.20
2018-02-18T18:03:32.204Z,18.77
2018-02-18T18:06:00.400Z,20.30
2018-02-18T18:08:27.837Z,21.30
2018-02-18T18:10:56.037Z,20.40
2018-02-18T18:13:23.468Z,18.40
2018-02-18T18:15:51.666Z,21.77
2018-02-18T18:18:19.116Z,18.83
2018-02-18T18:20:46.552Z,24.70
2018-02-18T18:23:14.752Z,23.67
2018-02-18T18:25:42.221Z,25.50
2018-02-18T18:28:10.395Z,21.63
2018-02-18T18:30:37.832Z,23.50
2018-02-18T18:33:05.306Z,26.03
2018-02-18T18:35:33.468Z,26.57
2018-02-18T18:38:00.903Z,28.93
2018-02-18T18:40:29.109Z,26.30
2018-02-18T18:42:56.538Z,39.70
2018-02-18T18:45:24.748Z,38.00
2018-02-18T18:47:52.186Z,40.27
2018-02-18T18:50:19.628Z,37.00
2018-02-18T18:52:47.819Z,47.90
2018-02-18T18:55:15.271Z,28.93
2018-02-18T18:57:42.704Z,34.50
2018-02-18T19:00:10.908Z,31.13
2018-02-18T19:02:38.347Z,31.67
2018-02-18T19:05:06.556Z,26.17
2018-02-18T19:07:33.994Z,24.70
2018-02-18T19:10:01.429Z,25.73
2018-02-18T19:12:29.649Z,31.53
2018-02-18T19:14:57.080Z,47.10
2018-02-18T19:17:24.516Z,45.57
2018-02-18T19:19:52.726Z,41.20
2018-02-18T19:22:20.151Z,26.30
2018-02-18T19:24:48.364Z,22.00
2018-02-18T19:27:15.780Z,24.60
2018-02-18T19:29:43.984Z,31.90
2018-02-18T19:32:11.429Z,33.10
2018-02-18T19:34:38.870Z,28.53
2018-02-18T19:37:07.060Z,23.63
2018-02-18T19:39:34.496Z,23.63
2018-02-18T19:42:02.700Z,23.50
2018-02-18T19:44:30.157Z,33.17
2018-02-18T19:46:57.604Z,28.90
2018-02-18T19:49:25.042Z,38.40
2018-02-18T19:51:53.264Z,38.73
2018-02-18T19:54:20.685Z,30.60
2018-02-18T19:56:48.126Z,38.57
2018-02-18T19:59:16.330Z,33.27
2018-02-18T20:01:43.756Z,29.03
2018-02-18T20:04:11.963Z,27.67
2018-02-18T20:06:39.398Z,30.33
2018-02-18T20:09:07.612Z,29.70
2018-02-18T20:11:35.046Z,31.53
2018-02-18T20:14:02.488Z,28.63
2018-02-18T20:16:30.684Z,32.10
2018-02-18T20:18:58.152Z,29.67
2018-02-18T20:21:25.600Z,29.30
2018-02-18T20:23:53.032Z,30.37
2018-02-18T20:26:20.468Z,30.20
2018-02-18T20:28:48.672Z,34.40
2018-02-18T20:31:16.108Z,36.80
2018-02-18T20:33:44.325Z,52.27
2018-02-18T20:36:11.760Z,56.23
2018-02-18T20:38:39.204Z,56.37
2018-02-18T20:41:07.403Z,43.27
2018-02-18T20:43:34.831Z,54.20
2018-02-18T20:46:03.046Z,41.40
2018-02-18T20:48:30.476Z,42.00
2018-02-18T20:50:57.912Z,61.57
2018-02-18T20:53:26.114Z,47.73
2018-02-18T20:55:53.577Z,39.73
2018-02-18T20:58:20.999Z,38.40
2018-02-18T21:00:49.207Z,37.90
2018-02-18T21:03:16.665Z,35.23
2018-02-18T21:05:44.100Z,34.63
2018-02-18T21:08:11.535Z,40.33
2018-02-18T21:10:39.745Z,36.37
2018-02-18T21:13:07.171Z,37.40
2018-02-18T21:15:35.372Z,34.90
2018-02-18T21:18:02.846Z,36.83
2018-02-18T21:20:30.280Z,41.53
2018-02-18T21:22:57.717Z,35.60
2018-02-18T21:25:25.940Z,38.00
2018-02-18T21:27:53.477Z,31.33
2018-02-18T21:30:20.908Z,34.53
2018-02-18T21:32:49.116Z,31.13
2018-02-18T21:35:16.544Z,29.50
2018-02-18T21:37:44.747Z,28.70
2018-02-18T21:40:12.180Z,39.10
2018-02-18T21:42:40.383Z,36.03
2018-02-18T21:45:07.852Z,38.47
2018-02-18T21:47:35.295Z,33.67
2018-02-18T21:50:02.738Z,33.93
2018-02-18T21:52:30.172Z,33.73
2018-02-18T21:54:58.396Z,36.23
2018-02-18T21:57:25.831Z,29.23
2018-02-18T21:59:53.286Z,37.97
2018-02-18T22:02:20.780Z,28.23
2018-02-18T22:04:48.223Z,33.07
2018-02-18T22:07:15.663Z,39.70
2018-02-18T22:09:43.108Z,29.20
2018-02-18T22:12:10.573Z,29.73
2018-02-18T22:14:38.017Z,30.77
2018-02-18T22:17:05.447Z,43.20
2018-02-18T22:19:33.664Z,34.60
2018-02-18T22:22:01.105Z,34.80
2018-02-18T22:24:28.544Z,28.47
2018-02-18T22:26:56.792Z,37.40
2018-02-18T22:29:24.332Z,35.40
2018-02-18T22:31:51.896Z,40.20
2018-02-18T22:34:19.325Z,39.43
2018-02-18T22:36:46.769Z,39.40
2018-02-18T22:39:14.284Z,39.53
2018-02-18T22:41:41.739Z,31.90
2018-02-18T22:44:09.164Z,36.00
2018-02-18T22:46:36.730Z,34.90
2018-02-18T22:49:04.176Z,36.17
2018-02-18T22:51:31.728Z,37.50
2018-02-18T22:53:59.175Z,34.23
2018-02-18T22:56:26.683Z,31.80
2018-02-18T22:58:54.119Z,27.83
2018-02-18T23:01:21.576Z,27.17
2018-02-18T23:03:49.025Z,32.03
2018-02-18T23:06:16.444Z,26.57
2018-02-18T23:08:44.647Z,30.93
2018-02-18T23:11:12.088Z,35.83
2018-02-18T23:13:39.596Z,32.70
2018-02-18T23:16:07.153Z,36.33
2018-02-18T23:18:34.583Z,40.07
2018-02-18T23:21:09.192Z,55.33
2018-02-18T23:23:36.784Z,42.40
2018-02-18T23:26:04.230Z,33.17
2018-02-18T23:28:31.698Z,35.50
2018-02-18T23:30:59.157Z,35.50
2018-02-18T23:33:26.612Z,34.37
2018-02-18T23:35:54.061Z,24.83
2018-02-18T23:38:21.496Z,32.97
2018-02-18T23:40:48.952Z,34.80
2018-02-18T23:43:16.388Z,26.23
2018-02-18T23:45:44.595Z,31.30
2018-02-18T23:48:12.063Z,30.07
2018-02-18T23:50:39.496Z,34.87
2018-02-18T23:53:06.955Z,31.93
2018-02-18T23:55:34.436Z,29.03
2018-02-18T23:58:01.991Z,33.60
